sensor_id;sensor_type;location;lat;lon;timestamp;temperature;humidity
11320;DHT22;5715;48.234;14.320;2024-01-15T00:01:56;-4.80;99.90
11320;DHT22;5715;48.234;14.320;2024-01-15T00:04:43;-4.90;99.90
11320;DHT22;5715;48.234;14.320;2024-01-15T00:07:31;-4.90;99.90
11320;DHT22;5715;48.234;14.320;2024-01-15T00:10:19;-5.00;99.90
11320;DHT22;5715;48.234;14.320;2024-01-15T00:13:06;-5.00;99.90
11320;DHT22;5715;48.234;14.320;2024-01-15T00:15:54;-5.00;99.90
11320;DHT22;5715;48.234;14.320;2024-01-15T00:18:42;-5.00;99.90
11320;DHT22;5715;48.234;14.320;2024-01-15T00:21:30;-4.90;99.90
11320;DHT22;5715;48.234;14.320;2024-01-15T00:24:17;-4.90;99.90
11320;DHT22;5715;48.234;14.320;2024-01-15T00:27:05;-5.00;99.90
11320;DHT22;5715;48.234;14.320;2024-01-15T00:29:53;-4.90;99.90
11320;DHT22;5715;48.234;14.320;2024-01-15T00:32:41;-4.90;99.90
11320;DHT22;5715;48.234;14.320;2024-01-15T00:35:29;-4.80;99.90
11320;DHT22;5715;48.234;14.320;2024-01-15T00:38:17;-4.80;99.90
11320;DHT22;5715;48.234;14.320;2024-01-15T00:41:05;-4.80;99.90
11320;DHT22;5715;48.234;14.320;2024-01-15T00:43:52;-4.80;99.90
11320;DHT22;5715;48.234;14.320;2024-01-15T00:46:44;-4.80;99.90
11320;DHT22;5715;48.234;14.320;2024-01-15T00:49:33;-4.80;99.90
11320;DHT22;5715;48.234;14.320;2024-01-15T00:52:21;-4.80;99.90
11320;DHT22;5715;48.234;14.320;2024-01-15T00:55:09;-4.80;99.90
11320;DHT22;5715;48.234;14.320;2024-01-15T00:57:57;-4.70;99.90
11320;DHT22;5715;48.234;14.320;2024-01-15T01:00:45;-4.60;99.90
11320;DHT22;5715;48.234;14.320;2024-01-15T01:03:32;-4.60;99.90
11320;DHT22;5715;48.234;14.320;2024-01-15T01:06:20;-4.50;99.90
11320;DHT22;5715;48.234;14.320;2024-01-15T01:09:08;-4.40;99.90
11320;DHT22;5715;48.234;14.320;2024-01-15T01:11:56;-4.30;99.90
11320;DHT22;5715;48.234;14.320;2024-01-15T01:14:44;-4.30;99.90
11320;DHT22;5715;48.234;14.320;2024-01-15T01:17:32;-4.30;99.90
11320;DHT22;5715;48.234;14.320;2024-01-15T01:20:20;-4.30;99.90
11320;DHT22;5715;48.234;14.320;2024-01-15T01:23:08;-4.40;99.90
11320;DHT22;5715;48.234;14.320;2024-01-15T01:25:55;-4.40;99.90
11320;DHT22;5715;48.234;14.320;2024-01-15T01:28:43;-4.50;99.90
11320;DHT22;5715;48.234;14.320;2024-01-15T01:31:30;-4.60;99.90
11320;DHT22;5715;48.234;14.320;2024-01-15T01:34:18;-4.70;99.90
11320;DHT22;5715;48.234;14.320;2024-01-15T01:37:07;-4.80;99.90
11320;DHT22;5715;48.234;14.320;2024-01-15T01:39:54;-4.90;99.90
11320;DHT22;5715;48.234;14.320;2024-01-15T01:42:42;-5.00;99.90
11320;DHT22;5715;48.234;14.320;2024-01-15T01:45:30;-5.00;99.90
11320;DHT22;5715;48.234;14.320;2024-01-15T01:48:18;-5.00;99.90
11320;DHT22;5715;48.234;14.320;2024-01-15T01:51:06;-5.40;99.90
11320;DHT22;5715;48.234;14.320;2024-01-15T01:53:55;-5.20;99.90
11320;DHT22;5715;48.234;14.320;2024-01-15T01:56:43;-5.20;99.90
11320;DHT22;5715;48.234;14.320;2024-01-15T01:59:30;-5.30;99.90
11320;DHT22;5715;48.234;14.320;2024-01-15T02:02:21;-5.30;99.90
11320;DHT22;5715;48.234;14.320;2024-01-15T02:05:10;-5.40;99.90
11320;DHT22;5715;48.234;14.320;2024-01-15T02:07:59;-5.40;99.90
11320;DHT22;5715;48.234;14.320;2024-01-15T02:10:46;-5.50;99.90
11320;DHT22;5715;48.234;14.320;2024-01-15T02:13:34;-5.60;99.90
11320;DHT22;5715;48.234;14.320;2024-01-15T02:16:22;-5.60;99.90
11320;DHT22;5715;48.234;14.320;2024-01-15T02:19:17;-5.70;99.90
11320;DHT22;5715;48.234;14.320;2024-01-15T02:22:05;-5.70;99.90
11320;DHT22;5715;48.234;14.320;2024-01-15T02:24:53;-5.70;99.90
11320;DHT22;5715;48.234;14.320;2024-01-15T02:27:42;-5.70;99.90
11320;DHT22;5715;48.234;14.320;2024-01-15T02:30:31;-5.70;99.90
11320;DHT22;5715;48.234;14.320;2024-01-15T02:33:20;-5.70;99.90
11320;DHT22;5715;48.234;14.320;2024-01-15T02:36:08;-5.70;99.90
11320;DHT22;5715;48.234;14.320;2024-01-15T02:38:55;-5.70;99.90
11320;DHT22;5715;48.234;14.320;2024-01-15T02:41:43;-5.80;99.90
11320;DHT22;5715;48.234;14.320;2024-01-15T02:44:31;-5.80;99.90
11320;DHT22;5715;48.234;14.320;2024-01-15T02:47:18;-5.80;99.90
11320;DHT22;5715;48.234;14.320;2024-01-15T02:50:06;-5.70;99.90
11320;DHT22;5715;48.234;14.320;2024-01-15T02:52:54;-5.70;99.90
11320;DHT22;5715;48.234;14.320;2024-01-15T02:55:42;-5.80;99.90
11320;DHT22;5715;48.234;14.320;2024-01-15T02:58:30;-5.80;99.90
11320;DHT22;5715;48.234;14.320;2024-01-15T03:01:19;-5.70;99.90
11320;DHT22;5715;48.234;14.320;2024-01-15T03:04:07;-5.70;99.90
11320;DHT22;5715;48.234;14.320;2024-01-15T03:06:55;-5.60;99.90
11320;DHT22;5715;48.234;14.320;2024-01-15T03:09:43;-5.50;99.90
11320;DHT22;5715;48.234;14.320;2024-01-15T03:12:31;-5.40;99.90
11320;DHT22;5715;48.234;14.320;2024-01-15T03:15:19;-5.20;99.90
11320;DHT22;5715;48.234;14.320;2024-01-15T03:18:07;-5.10;99.90
11320;DHT22;5715;48.234;14.320;2024-01-15T03:20:55;-5.00;99.90
11320;DHT22;5715;48.234;14.320;2024-01-15T03:23:43;-4.90;99.90
11320;DHT22;5715;48.234;14.320;2024-01-15T03:26:30;-4.70;99.90
11320;DHT22;5715;48.234;14.320;2024-01-15T03:29:18;-4.70;99.90
11320;DHT22;5715;48.234;14.320;2024-01-15T03:32:06;-4.60;99.90
11320;DHT22;5715;48.234;14.320;2024-01-15T03:34:54;-4.60;99.90
11320;DHT22;5715;48.234;14.320;2024-01-15T03:37:42;-4.50;99.90
11320;DHT22;5715;48.234;14.320;2024-01-15T03:40:30;-4.40;99.90
11320;DHT22;5715;48.234;14.320;2024-01-15T03:43:18;-4.40;99.90
11320;DHT22;5715;48.234;14.320;2024-01-15T03:46:06;-4.30;99.90
11320;DHT22;5715;48.234;14.320;2024-01-15T03:48:54;-4.20;99.90
11320;DHT22;5715;48.234;14.320;2024-01-15T03:51:45;-4.20;99.90
11320;DHT22;5715;48.234;14.320;2024-01-15T03:54:33;-4.20;99.90
11320;DHT22;5715;48.234;14.320;2024-01-15T03:57:21;-4.20;99.90
11320;DHT22;5715;48.234;14.320;2024-01-15T04:00:09;-4.30;99.90
11320;DHT22;5715;48.234;14.320;2024-01-15T04:02:57;-4.30;99.90
11320;DHT22;5715;48.234;14.320;2024-01-15T04:05:45;-4.40;99.90
11320;DHT22;5715;48.234;14.320;2024-01-15T04:08:32;-4.40;99.90
11320;DHT22;5715;48.234;14.320;2024-01-15T04:11:20;-4.30;99.90
11320;DHT22;5715;48.234;14.320;2024-01-15T04:14:09;-4.30;99.90
11320;DHT22;5715;48.234;14.320;2024-01-15T04:16:57;-4.10;99.90
11320;DHT22;5715;48.234;14.320;2024-01-15T04:19:44;-3.90;99.90
11320;DHT22;5715;48.234;14.320;2024-01-15T04:22:36;-3.70;99.90
11320;DHT22;5715;48.234;14.320;2024-01-15T04:25:24;-3.50;99.90
11320;DHT22;5715;48.234;14.320;2024-01-15T04:28:12;-3.30;99.90
11320;DHT22;5715;48.234;14.320;2024-01-15T04:31:00;-3.20;99.90
11320;DHT22;5715;48.234;14.320;2024-01-15T04:33:48;-3.00;99.90
11320;DHT22;5715;48.234;14.320;2024-01-15T04:36:39;-2.90;99.90
11320;DHT22;5715;48.234;14.320;2024-01-15T04:39:29;-2.90;99.90
11320;DHT22;5715;48.234;14.320;2024-01-15T04:42:17;-2.80;99.90
11320;DHT22;5715;48.234;14.320;2024-01-15T04:45:05;-2.70;99.90
11320;DHT22;5715;48.234;14.320;2024-01-15T04:47:52;-2.70;99.90
11320;DHT22;5715;48.234;14.320;2024-01-15T04:50:40;-2.60;99.90
11320;DHT22;5715;48.234;14.320;2024-01-15T04:53:28;-2.50;99.90
11320;DHT22;5715;48.234;14.320;2024-01-15T04:56:16;-2.40;99.90
11320;DHT22;5715;48.234;14.320;2024-01-15T04:59:04;-2.30;99.90
11320;DHT22;5715;48.234;14.320;2024-01-15T05:01:51;-2.30;99.90
11320;DHT22;5715;48.234;14.320;2024-01-15T05:04:39;-2.20;99.90
11320;DHT22;5715;48.234;14.320;2024-01-15T05:07:27;-2.20;99.90
11320;DHT22;5715;48.234;14.320;2024-01-15T05:10:14;-2.10;99.90
11320;DHT22;5715;48.234;14.320;2024-01-15T05:13:02;-2.10;99.90
11320;DHT22;5715;48.234;14.320;2024-01-15T05:15:50;-2.10;99.90
11320;DHT22;5715;48.234;14.320;2024-01-15T05:18:37;-2.20;99.90
11320;DHT22;5715;48.234;14.320;2024-01-15T05:21:25;-2.20;99.90
11320;DHT22;5715;48.234;14.320;2024-01-15T05:24:13;-2.30;99.90
11320;DHT22;5715;48.234;14.320;2024-01-15T05:27:01;-2.40;99.90
11320;DHT22;5715;48.234;14.320;2024-01-15T05:29:48;-2.50;99.90
11320;DHT22;5715;48.234;14.320;2024-01-15T05:32:36;-2.60;99.90
11320;DHT22;5715;48.234;14.320;2024-01-15T05:35:24;-2.70;99.90
11320;DHT22;5715;48.234;14.320;2024-01-15T05:38:11;-2.80;99.90
11320;DHT22;5715;48.234;14.320;2024-01-15T05:40:59;-2.80;99.90
11320;DHT22;5715;48.234;14.320;2024-01-15T05:43:47;-2.90;99.90
11320;DHT22;5715;48.234;14.320;2024-01-15T05:46:35;-2.90;99.90
11320;DHT22;5715;48.234;14.320;2024-01-15T05:49:22;-2.80;99.90
11320;DHT22;5715;48.234;14.320;2024-01-15T05:52:13;-2.80;99.90
11320;DHT22;5715;48.234;14.320;2024-01-15T05:55:01;-2.80;99.90
11320;DHT22;5715;48.234;14.320;2024-01-15T05:57:49;-2.70;99.90
11320;DHT22;5715;48.234;14.320;2024-01-15T06:00:37;-2.70;99.90
11320;DHT22;5715;48.234;14.320;2024-01-15T06:03:26;-2.60;99.90
11320;DHT22;5715;48.234;14.320;2024-01-15T06:06:14;-2.60;99.90
11320;DHT22;5715;48.234;14.320;2024-01-15T06:09:02;-2.50;99.90
11320;DHT22;5715;48.234;14.320;2024-01-15T06:11:53;-2.50;99.90
11320;DHT22;5715;48.234;14.320;2024-01-15T06:14:40;-2.40;99.90
11320;DHT22;5715;48.234;14.320;2024-01-15T06:17:29;-2.40;99.90
11320;DHT22;5715;48.234;14.320;2024-01-15T06:20:18;-2.30;99.90
11320;DHT22;5715;48.234;14.320;2024-01-15T06:23:06;-2.30;99.90
11320;DHT22;5715;48.234;14.320;2024-01-15T06:25:54;-2.30;99.90
11320;DHT22;5715;48.234;14.320;2024-01-15T06:28:42;-2.20;99.90
11320;DHT22;5715;48.234;14.320;2024-01-15T06:31:29;-2.20;99.90
11320;DHT22;5715;48.234;14.320;2024-01-15T06:34:17;-2.10;99.90
11320;DHT22;5715;48.234;14.320;2024-01-15T06:37:06;-2.10;99.90
11320;DHT22;5715;48.234;14.320;2024-01-15T06:39:54;-2.10;99.90
11320;DHT22;5715;48.234;14.320;2024-01-15T06:42:42;-2.10;99.90
11320;DHT22;5715;48.234;14.320;2024-01-15T06:45:29;-2.00;99.90
11320;DHT22;5715;48.234;14.320;2024-01-15T06:48:18;-2.00;99.90
11320;DHT22;5715;48.234;14.320;2024-01-15T06:51:06;-2.00;99.90
11320;DHT22;5715;48.234;14.320;2024-01-15T06:53:54;-1.90;99.90
11320;DHT22;5715;48.234;14.320;2024-01-15T06:56:42;-1.90;99.90
11320;DHT22;5715;48.234;14.320;2024-01-15T06:59:30;-1.90;99.90
11320;DHT22;5715;48.234;14.320;2024-01-15T07:02:17;-1.90;99.90
11320;DHT22;5715;48.234;14.320;2024-01-15T07:05:05;-1.90;99.90
11320;DHT22;5715;48.234;14.320;2024-01-15T07:07:53;-1.80;99.90
11320;DHT22;5715;48.234;14.320;2024-01-15T07:10:41;-1.80;99.90
11320;DHT22;5715;48.234;14.320;2024-01-15T07:13:29;-1.80;99.90
11320;DHT22;5715;48.234;14.320;2024-01-15T07:16:16;-1.80;99.90
11320;DHT22;5715;48.234;14.320;2024-01-15T07:19:23;-1.80;99.90
11320;DHT22;5715;48.234;14.320;2024-01-15T07:22:12;-1.80;99.90
11320;DHT22;5715;48.234;14.320;2024-01-15T07:25:00;-1.80;99.90
11320;DHT22;5715;48.234;14.320;2024-01-15T07:27:48;-1.70;99.90
11320;DHT22;5715;48.234;14.320;2024-01-15T07:30:36;-1.70;99.90
11320;DHT22;5715;48.234;14.320;2024-01-15T07:33:26;-1.70;99.90
11320;DHT22;5715;48.234;14.320;2024-01-15T07:36:15;-1.70;99.90
11320;DHT22;5715;48.234;14.320;2024-01-15T07:39:03;-1.70;99.90
11320;DHT22;5715;48.234;14.320;2024-01-15T07:41:52;-1.70;99.90
11320;DHT22;5715;48.234;14.320;2024-01-15T07:44:40;-1.60;99.90
11320;DHT22;5715;48.234;14.320;2024-01-15T07:47:27;-1.60;99.90
11320;DHT22;5715;48.234;14.320;2024-01-15T07:50:15;-1.60;99.90
11320;DHT22;5715;48.234;14.320;2024-01-15T07:53:03;-1.50;99.90
11320;DHT22;5715;48.234;14.320;2024-01-15T07:55:51;-1.50;99.90
11320;DHT22;5715;48.234;14.320;2024-01-15T07:58:39;-1.50;99.90
11320;DHT22;5715;48.234;14.320;2024-01-15T08:01:27;-1.40;99.90
11320;DHT22;5715;48.234;14.320;2024-01-15T08:04:14;-1.40;99.90
11320;DHT22;5715;48.234;14.320;2024-01-15T08:07:03;-1.30;99.90
11320;DHT22;5715;48.234;14.320;2024-01-15T08:09:52;-1.30;99.90
11320;DHT22;5715;48.234;14.320;2024-01-15T08:12:41;-1.20;99.90
11320;DHT22;5715;48.234;14.320;2024-01-15T08:15:28;-1.20;99.90
11320;DHT22;5715;48.234;14.320;2024-01-15T08:18:18;-1.10;99.90
11320;DHT22;5715;48.234;14.320;2024-01-15T08:21:06;-1.10;99.90
11320;DHT22;5715;48.234;14.320;2024-01-15T08:23:54;-1.10;99.90
11320;DHT22;5715;48.234;14.320;2024-01-15T08:26:42;-1.10;99.90
11320;DHT22;5715;48.234;14.320;2024-01-15T08:29:30;-1.00;99.90
11320;DHT22;5715;48.234;14.320;2024-01-15T08:32:20;-1.00;99.90
11320;DHT22;5715;48.234;14.320;2024-01-15T08:35:11;-0.90;99.90
11320;DHT22;5715;48.234;14.320;2024-01-15T08:37:59;-0.90;99.90
11320;DHT22;5715;48.234;14.320;2024-01-15T08:40:47;-0.90;99.90
11320;DHT22;5715;48.234;14.320;2024-01-15T08:43:35;-0.70;99.90
11320;DHT22;5715;48.234;14.320;2024-01-15T08:46:23;-0.70;99.90
11320;DHT22;5715;48.234;14.320;2024-01-15T08:49:11;-0.70;99.90
11320;DHT22;5715;48.234;14.320;2024-01-15T08:51:59;-0.70;99.90
11320;DHT22;5715;48.234;14.320;2024-01-15T08:54:47;-0.70;99.90
11320;DHT22;5715;48.234;14.320;2024-01-15T08:57:35;-0.70;99.90
11320;DHT22;5715;48.234;14.320;2024-01-15T09:00:23;-0.60;99.90
11320;DHT22;5715;48.234;14.320;2024-01-15T09:03:11;-0.50;99.90
11320;DHT22;5715;48.234;14.320;2024-01-15T09:05:59;-0.50;99.90
11320;DHT22;5715;48.234;14.320;2024-01-15T09:08:47;-0.50;99.90
11320;DHT22;5715;48.234;14.320;2024-01-15T09:11:35;-0.40;99.90
11320;DHT22;5715;48.234;14.320;2024-01-15T09:14:22;-0.40;99.90
11320;DHT22;5715;48.234;14.320;2024-01-15T09:17:23;-0.30;99.90
11320;DHT22;5715;48.234;14.320;2024-01-15T09:20:10;-0.30;99.90
11320;DHT22;5715;48.234;14.320;2024-01-15T09:22:58;-0.20;99.90
11320;DHT22;5715;48.234;14.320;2024-01-15T09:25:46;-0.20;99.90
11320;DHT22;5715;48.234;14.320;2024-01-15T09:28:35;-0.20;99.90
11320;DHT22;5715;48.234;14.320;2024-01-15T09:31:23;-0.10;99.90
11320;DHT22;5715;48.234;14.320;2024-01-15T09:34:11;0.00;99.90
11320;DHT22;5715;48.234;14.320;2024-01-15T09:36:59;-0.10;99.90
11320;DHT22;5715;48.234;14.320;2024-01-15T09:39:47;0.00;99.90
11320;DHT22;5715;48.234;14.320;2024-01-15T09:42:36;0.00;99.90
11320;DHT22;5715;48.234;14.320;2024-01-15T09:45:24;0.10;99.90
11320;DHT22;5715;48.234;14.320;2024-01-15T09:48:12;0.10;99.90
11320;DHT22;5715;48.234;14.320;2024-01-15T09:51:01;0.10;99.90
11320;DHT22;5715;48.234;14.320;2024-01-15T09:53:50;0.20;99.90
11320;DHT22;5715;48.234;14.320;2024-01-15T09:56:39;0.10;99.90
11320;DHT22;5715;48.234;14.320;2024-01-15T09:59:27;0.10;99.90
11320;DHT22;5715;48.234;14.320;2024-01-15T10:02:15;0.10;99.90
11320;DHT22;5715;48.234;14.320;2024-01-15T10:05:05;0.10;99.90
11320;DHT22;5715;48.234;14.320;2024-01-15T10:07:54;0.20;99.90
11320;DHT22;5715;48.234;14.320;2024-01-15T10:10:44;0.30;99.90
11320;DHT22;5715;48.234;14.320;2024-01-15T10:13:31;0.40;99.90
11320;DHT22;5715;48.234;14.320;2024-01-15T10:16:21;0.50;99.90
11320;DHT22;5715;48.234;14.320;2024-01-15T10:19:09;0.60;99.90
11320;DHT22;5715;48.234;14.320;2024-01-15T10:21:57;0.70;99.90
11320;DHT22;5715;48.234;14.320;2024-01-15T10:24:45;0.90;99.90
11320;DHT22;5715;48.234;14.320;2024-01-15T10:27:35;0.80;99.90
11320;DHT22;5715;48.234;14.320;2024-01-15T10:30:24;0.80;99.90
11320;DHT22;5715;48.234;14.320;2024-01-15T10:33:12;0.90;99.90
11320;DHT22;5715;48.234;14.320;2024-01-15T10:36:00;1.00;99.90
11320;DHT22;5715;48.234;14.320;2024-01-15T10:38:48;1.00;99.90
11320;DHT22;5715;48.234;14.320;2024-01-15T10:41:36;1.00;99.90
11320;DHT22;5715;48.234;14.320;2024-01-15T10:44:24;1.00;99.90
11320;DHT22;5715;48.234;14.320;2024-01-15T10:47:13;1.00;99.90
11320;DHT22;5715;48.234;14.320;2024-01-15T10:50:01;1.00;99.90
11320;DHT22;5715;48.234;14.320;2024-01-15T10:52:50;1.10;99.90
11320;DHT22;5715;48.234;14.320;2024-01-15T10:55:39;1.20;99.90
11320;DHT22;5715;48.234;14.320;2024-01-15T10:58:31;1.30;99.90
11320;DHT22;5715;48.234;14.320;2024-01-15T11:01:21;1.30;99.90
11320;DHT22;5715;48.234;14.320;2024-01-15T11:04:12;1.40;99.90
11320;DHT22;5715;48.234;14.320;2024-01-15T11:07:02;1.50;99.90
11320;DHT22;5715;48.234;14.320;2024-01-15T11:09:51;1.60;99.90
11320;DHT22;5715;48.234;14.320;2024-01-15T11:12:41;1.70;99.90
11320;DHT22;5715;48.234;14.320;2024-01-15T11:15:29;1.70;99.90
11320;DHT22;5715;48.234;14.320;2024-01-15T11:18:17;1.60;99.90
11320;DHT22;5715;48.234;14.320;2024-01-15T11:24:05;1.50;99.90
11320;DHT22;5715;48.234;14.320;2024-01-15T11:26:54;1.60;99.90
11320;DHT22;5715;48.234;14.320;2024-01-15T11:29:42;1.50;99.90
11320;DHT22;5715;48.234;14.320;2024-01-15T11:32:33;1.60;99.90
11320;DHT22;5715;48.234;14.320;2024-01-15T11:35:21;1.50;99.90
11320;DHT22;5715;48.234;14.320;2024-01-15T11:38:26;1.50;99.90
11320;DHT22;5715;48.234;14.320;2024-01-15T11:41:17;1.50;99.90
11320;DHT22;5715;48.234;14.320;2024-01-15T11:44:06;1.60;99.90
11320;DHT22;5715;48.234;14.320;2024-01-15T11:47:00;1.70;99.90
11320;DHT22;5715;48.234;14.320;2024-01-15T11:50:00;1.70;99.90
11320;DHT22;5715;48.234;14.320;2024-01-15T11:53:03;1.80;99.90
11320;DHT22;5715;48.234;14.320;2024-01-15T11:55:58;1.90;99.90
11320;DHT22;5715;48.234;14.320;2024-01-15T11:58:48;1.90;99.90
11320;DHT22;5715;48.234;14.320;2024-01-15T12:01:38;1.90;99.90
11320;DHT22;5715;48.234;14.320;2024-01-15T12:04:25;2.00;99.90
11320;DHT22;5715;48.234;14.320;2024-01-15T12:07:14;2.10;99.90
11320;DHT22;5715;48.234;14.320;2024-01-15T12:10:02;2.20;99.90
11320;DHT22;5715;48.234;14.320;2024-01-15T12:13:15;2.20;99.90
11320;DHT22;5715;48.234;14.320;2024-01-15T12:16:05;2.10;99.90
11320;DHT22;5715;48.234;14.320;2024-01-15T12:18:53;2.00;99.90
11320;DHT22;5715;48.234;14.320;2024-01-15T12:21:41;2.00;99.90
11320;DHT22;5715;48.234;14.320;2024-01-15T12:24:29;2.00;99.90
11320;DHT22;5715;48.234;14.320;2024-01-15T12:27:16;2.00;99.90
11320;DHT22;5715;48.234;14.320;2024-01-15T12:30:05;2.00;99.90
11320;DHT22;5715;48.234;14.320;2024-01-15T12:32:55;1.90;99.90
11320;DHT22;5715;48.234;14.320;2024-01-15T12:35:43;2.00;99.90
11320;DHT22;5715;48.234;14.320;2024-01-15T12:38:30;1.90;99.90
11320;DHT22;5715;48.234;14.320;2024-01-15T12:41:19;1.90;99.90
11320;DHT22;5715;48.234;14.320;2024-01-15T12:44:07;2.00;99.90
11320;DHT22;5715;48.234;14.320;2024-01-15T12:46:55;2.00;99.90
11320;DHT22;5715;48.234;14.320;2024-01-15T12:49:48;1.90;99.90
11320;DHT22;5715;48.234;14.320;2024-01-15T12:52:52;1.90;99.90
11320;DHT22;5715;48.234;14.320;2024-01-15T12:55:39;1.80;99.90
11320;DHT22;5715;48.234;14.320;2024-01-15T12:58:27;1.80;99.90
11320;DHT22;5715;48.234;14.320;2024-01-15T13:01:15;1.80;99.90
11320;DHT22;5715;48.234;14.320;2024-01-15T13:04:03;1.90;99.90
11320;DHT22;5715;48.234;14.320;2024-01-15T13:06:51;1.80;99.90
11320;DHT22;5715;48.234;14.320;2024-01-15T13:09:39;1.80;99.90
11320;DHT22;5715;48.234;14.320;2024-01-15T13:12:27;1.80;99.90
11320;DHT22;5715;48.234;14.320;2024-01-15T13:15:15;1.80;99.90
11320;DHT22;5715;48.234;14.320;2024-01-15T13:18:03;1.90;99.90
11320;DHT22;5715;48.234;14.320;2024-01-15T13:20:51;1.80;99.90
11320;DHT22;5715;48.234;14.320;2024-01-15T13:23:39;1.80;99.90
11320;DHT22;5715;48.234;14.320;2024-01-15T13:26:26;1.80;99.90
11320;DHT22;5715;48.234;14.320;2024-01-15T13:29:14;1.70;99.90
11320;DHT22;5715;48.234;14.320;2024-01-15T13:32:02;1.80;99.90
11320;DHT22;5715;48.234;14.320;2024-01-15T13:34:51;1.80;99.90
11320;DHT22;5715;48.234;14.320;2024-01-15T13:37:40;1.80;99.90
11320;DHT22;5715;48.234;14.320;2024-01-15T13:40:28;1.70;99.90
11320;DHT22;5715;48.234;14.320;2024-01-15T13:43:19;1.70;99.90
11320;DHT22;5715;48.234;14.320;2024-01-15T13:46:10;1.80;99.90
11320;DHT22;5715;48.234;14.320;2024-01-15T13:48:59;1.80;99.90
11320;DHT22;5715;48.234;14.320;2024-01-15T13:51:50;1.80;99.90
11320;DHT22;5715;48.234;14.320;2024-01-15T13:54:41;1.90;99.90
11320;DHT22;5715;48.234;14.320;2024-01-15T13:57:40;1.70;99.90
11320;DHT22;5715;48.234;14.320;2024-01-15T14:00:30;1.70;99.90
11320;DHT22;5715;48.234;14.320;2024-01-15T14:03:21;1.80;99.90
11320;DHT22;5715;48.234;14.320;2024-01-15T14:06:12;1.80;99.90
11320;DHT22;5715;48.234;14.320;2024-01-15T14:09:01;1.80;99.90
11320;DHT22;5715;48.234;14.320;2024-01-15T14:11:56;1.80;99.90
11320;DHT22;5715;48.234;14.320;2024-01-15T14:14:44;1.80;99.90
11320;DHT22;5715;48.234;14.320;2024-01-15T14:17:32;1.70;99.90
11320;DHT22;5715;48.234;14.320;2024-01-15T14:20:24;1.80;99.90
11320;DHT22;5715;48.234;14.320;2024-01-15T14:23:20;1.80;99.90
11320;DHT22;5715;48.234;14.320;2024-01-15T14:26:09;1.70;99.90
11320;DHT22;5715;48.234;14.320;2024-01-15T14:29:06;1.70;99.90
11320;DHT22;5715;48.234;14.320;2024-01-15T14:31:55;1.60;99.90
11320;DHT22;5715;48.234;14.320;2024-01-15T14:34:44;1.60;99.90
11320;DHT22;5715;48.234;14.320;2024-01-15T14:37:32;1.50;99.90
11320;DHT22;5715;48.234;14.320;2024-01-15T14:40:25;1.50;99.90
11320;DHT22;5715;48.234;14.320;2024-01-15T14:43:20;1.50;99.90
11320;DHT22;5715;48.234;14.320;2024-01-15T14:46:09;1.50;99.90
11320;DHT22;5715;48.234;14.320;2024-01-15T14:49:01;1.40;99.90
11320;DHT22;5715;48.234;14.320;2024-01-15T14:51:55;1.40;99.90
11320;DHT22;5715;48.234;14.320;2024-01-15T14:54:45;1.50;99.90
11320;DHT22;5715;48.234;14.320;2024-01-15T14:57:42;1.30;99.90
11320;DHT22;5715;48.234;14.320;2024-01-15T15:00:34;1.30;99.90
11320;DHT22;5715;48.234;14.320;2024-01-15T15:03:24;1.30;99.90
11320;DHT22;5715;48.234;14.320;2024-01-15T15:06:16;1.30;99.90
11320;DHT22;5715;48.234;14.320;2024-01-15T15:09:06;1.30;99.90
11320;DHT22;5715;48.234;14.320;2024-01-15T15:12:05;1.30;99.90
11320;DHT22;5715;48.234;14.320;2024-01-15T15:14:54;1.30;99.90
11320;DHT22;5715;48.234;14.320;2024-01-15T15:17:56;1.40;99.90
11320;DHT22;5715;48.234;14.320;2024-01-15T15:20:44;1.30;99.90
11320;DHT22;5715;48.234;14.320;2024-01-15T15:23:35;1.20;99.90
11320;DHT22;5715;48.234;14.320;2024-01-15T15:26:24;1.30;99.90
11320;DHT22;5715;48.234;14.320;2024-01-15T15:29:11;1.30;99.90
11320;DHT22;5715;48.234;14.320;2024-01-15T15:32:02;1.30;99.90
11320;DHT22;5715;48.234;14.320;2024-01-15T15:34:50;1.30;99.90
11320;DHT22;5715;48.234;14.320;2024-01-15T15:37:38;1.40;99.90
11320;DHT22;5715;48.234;14.320;2024-01-15T15:40:26;1.30;99.90
11320;DHT22;5715;48.234;14.320;2024-01-15T15:43:14;1.30;99.90
11320;DHT22;5715;48.234;14.320;2024-01-15T15:46:02;1.40;99.90
11320;DHT22;5715;48.234;14.320;2024-01-15T15:48:50;1.40;99.90
11320;DHT22;5715;48.234;14.320;2024-01-15T15:51:40;1.40;99.90
11320;DHT22;5715;48.234;14.320;2024-01-15T15:54:28;1.40;99.90
11320;DHT22;5715;48.234;14.320;2024-01-15T15:57:16;1.40;99.90
11320;DHT22;5715;48.234;14.320;2024-01-15T16:00:05;1.40;99.90
11320;DHT22;5715;48.234;14.320;2024-01-15T16:02:53;1.40;99.90
11320;DHT22;5715;48.234;14.320;2024-01-15T16:05:41;1.40;99.90
11320;DHT22;5715;48.234;14.320;2024-01-15T16:08:39;1.40;99.90
11320;DHT22;5715;48.234;14.320;2024-01-15T16:11:26;1.30;99.90
11320;DHT22;5715;48.234;14.320;2024-01-15T16:14:16;1.30;99.90
11320;DHT22;5715;48.234;14.320;2024-01-15T16:17:05;1.30;99.90
11320;DHT22;5715;48.234;14.320;2024-01-15T16:20:12;1.30;99.90
11320;DHT22;5715;48.234;14.320;2024-01-15T16:23:20;1.30;99.90
11320;DHT22;5715;48.234;14.320;2024-01-15T16:26:27;1.30;99.90
11320;DHT22;5715;48.234;14.320;2024-01-15T16:29:15;1.30;99.90
11320;DHT22;5715;48.234;14.320;2024-01-15T16:32:03;1.30;99.90
11320;DHT22;5715;48.234;14.320;2024-01-15T16:34:51;1.30;99.90
11320;DHT22;5715;48.234;14.320;2024-01-15T16:37:39;1.30;99.90
11320;DHT22;5715;48.234;14.320;2024-01-15T16:40:27;1.40;99.90
11320;DHT22;5715;48.234;14.320;2024-01-15T16:43:16;1.30;99.90
11320;DHT22;5715;48.234;14.320;2024-01-15T16:46:04;1.30;99.90
11320;DHT22;5715;48.234;14.320;2024-01-15T16:48:52;1.30;99.90
11320;DHT22;5715;48.234;14.320;2024-01-15T16:51:40;1.30;99.90
11320;DHT22;5715;48.234;14.320;2024-01-15T16:54:28;1.20;99.90
11320;DHT22;5715;48.234;14.320;2024-01-15T16:57:16;1.20;99.90
11320;DHT22;5715;48.234;14.320;2024-01-15T17:00:03;1.10;99.90
11320;DHT22;5715;48.234;14.320;2024-01-15T17:02:52;1.00;99.90
11320;DHT22;5715;48.234;14.320;2024-01-15T17:05:40;1.00;99.90
11320;DHT22;5715;48.234;14.320;2024-01-15T17:08:28;0.90;99.90
11320;DHT22;5715;48.234;14.320;2024-01-15T17:11:16;0.80;99.90
11320;DHT22;5715;48.234;14.320;2024-01-15T17:14:04;0.80;99.90
11320;DHT22;5715;48.234;14.320;2024-01-15T17:16:51;0.80;99.90
11320;DHT22;5715;48.234;14.320;2024-01-15T17:19:39;0.80;99.90
11320;DHT22;5715;48.234;14.320;2024-01-15T17:22:27;0.80;99.90
11320;DHT22;5715;48.234;14.320;2024-01-15T17:25:16;0.70;99.90
11320;DHT22;5715;48.234;14.320;2024-01-15T17:28:04;0.70;99.90
11320;DHT22;5715;48.234;14.320;2024-01-15T17:30:52;0.70;99.90
11320;DHT22;5715;48.234;14.320;2024-01-15T17:33:39;0.60;99.90
11320;DHT22;5715;48.234;14.320;2024-01-15T17:36:27;0.60;99.90
11320;DHT22;5715;48.234;14.320;2024-01-15T17:39:15;0.50;99.90
11320;DHT22;5715;48.234;14.320;2024-01-15T17:42:04;0.50;99.90
11320;DHT22;5715;48.234;14.320;2024-01-15T17:44:52;0.50;99.90
11320;DHT22;5715;48.234;14.320;2024-01-15T17:47:40;0.50;99.90
11320;DHT22;5715;48.234;14.320;2024-01-15T17:50:28;0.50;99.90
11320;DHT22;5715;48.234;14.320;2024-01-15T17:53:16;0.50;99.90
11320;DHT22;5715;48.234;14.320;2024-01-15T17:56:04;0.50;99.90
11320;DHT22;5715;48.234;14.320;2024-01-15T17:58:52;0.40;99.90